sensor_id;sensor_type;location;lat;lon;timestamp;temperature;humidity
3564;DHT22;1796;52.388;13.096;2023-07-31T00:00:21;14.20;99.90
3564;DHT22;1796;52.388;13.096;2023-07-31T00:02:48;14.20;99.90
3564;DHT22;1796;52.388;13.096;2023-07-31T00:05:15;14.20;99.90
3564;DHT22;1796;52.388;13.096;2023-07-31T00:07:42;14.20;99.90
3564;DHT22;1796;52.388;13.096;2023-07-31T00:10:09;14.20;99.90
3564;DHT22;1796;52.388;13.096;2023-07-31T00:12:38;14.20;99.90
3564;DHT22;1796;52.388;13.096;2023-07-31T00:15:06;14.20;99.90
3564;DHT22;1796;52.388;13.096;2023-07-31T00:17:33;14.20;99.90
3564;DHT22;1796;52.388;13.096;2023-07-31T00:20:00;14.20;99.90
3564;DHT22;1796;52.388;13.096;2023-07-31T00:22:27;14.20;99.90
3564;DHT22;1796;52.388;13.096;2023-07-31T00:24:53;14.20;99.90
3564;DHT22;1796;52.388;13.096;2023-07-31T00:27:20;14.20;99.90
3564;DHT22;1796;52.388;13.096;2023-07-31T00:29:48;14.30;99.90
3564;DHT22;1796;52.388;13.096;2023-07-31T00:32:15;14.30;99.90
3564;DHT22;1796;52.388;13.096;2023-07-31T00:34:42;14.40;99.90
3564;DHT22;1796;52.388;13.096;2023-07-31T00:37:09;14.40;99.90
3564;DHT22;1796;52.388;13.096;2023-07-31T00:39:36;14.40;99.90
3564;DHT22;1796;52.388;13.096;2023-07-31T00:42:03;14.60;99.90
3564;DHT22;1796;52.388;13.096;2023-07-31T00:44:30;14.60;99.90
3564;DHT22;1796;52.388;13.096;2023-07-31T00:46:58;14.60;99.90
3564;DHT22;1796;52.388;13.096;2023-07-31T00:49:26;14.60;99.90
3564;DHT22;1796;52.388;13.096;2023-07-31T00:51:53;14.60;99.90
3564;DHT22;1796;52.388;13.096;2023-07-31T00:54:22;14.60;99.90
3564;DHT22;1796;52.388;13.096;2023-07-31T00:56:50;14.60;99.90
3564;DHT22;1796;52.388;13.096;2023-07-31T00:59:19;14.50;99.90
3564;DHT22;1796;52.388;13.096;2023-07-31T01:01:46;14.50;99.90
3564;DHT22;1796;52.388;13.096;2023-07-31T01:04:14;14.50;99.90
3564;DHT22;1796;52.388;13.096;2023-07-31T01:06:47;14.50;99.90
3564;DHT22;1796;52.388;13.096;2023-07-31T01:09:22;14.50;99.90
3564;DHT22;1796;52.388;13.096;2023-07-31T01:11:57;14.50;99.90
3564;DHT22;1796;52.388;13.096;2023-07-31T01:14:25;14.60;99.90
3564;DHT22;1796;52.388;13.096;2023-07-31T01:16:52;14.50;99.90
3564;DHT22;1796;52.388;13.096;2023-07-31T01:19:25;14.60;99.90
3564;DHT22;1796;52.388;13.096;2023-07-31T01:22:16;14.60;99.90
3564;DHT22;1796;52.388;13.096;2023-07-31T01:24:55;14.60;99.90
3564;DHT22;1796;52.388;13.096;2023-07-31T01:27:30;14.60;99.90
3564;DHT22;1796;52.388;13.096;2023-07-31T01:30:03;14.60;99.90
3564;DHT22;1796;52.388;13.096;2023-07-31T01:32:36;14.60;99.90
3564;DHT22;1796;52.388;13.096;2023-07-31T01:35:05;14.60;99.90
3564;DHT22;1796;52.388;13.096;2023-07-31T01:37:32;14.60;99.90
3564;DHT22;1796;52.388;13.096;2023-07-31T01:39:59;14.60;99.90
3564;DHT22;1796;52.388;13.096;2023-07-31T01:42:27;14.60;99.90
3564;DHT22;1796;52.388;13.096;2023-07-31T01:44:54;14.60;99.90
3564;DHT22;1796;52.388;13.096;2023-07-31T01:47:21;14.60;99.90
3564;DHT22;1796;52.388;13.096;2023-07-31T01:49:49;14.60;99.90
3564;DHT22;1796;52.388;13.096;2023-07-31T01:52:15;14.60;99.90
3564;DHT22;1796;52.388;13.096;2023-07-31T01:54:42;14.50;99.90
3564;DHT22;1796;52.388;13.096;2023-07-31T01:57:09;14.50;99.90
3564;DHT22;1796;52.388;13.096;2023-07-31T01:59:37;14.50;99.90
3564;DHT22;1796;52.388;13.096;2023-07-31T02:02:05;14.50;99.90
3564;DHT22;1796;52.388;13.096;2023-07-31T02:04:32;14.50;99.90
3564;DHT22;1796;52.388;13.096;2023-07-31T02:06:59;14.50;99.90
3564;DHT22;1796;52.388;13.096;2023-07-31T02:09:26;14.50;99.90
3564;DHT22;1796;52.388;13.096;2023-07-31T02:11:53;14.50;99.90
3564;DHT22;1796;52.388;13.096;2023-07-31T02:14:20;14.50;99.90
3564;DHT22;1796;52.388;13.096;2023-07-31T02:16:48;14.50;99.90
3564;DHT22;1796;52.388;13.096;2023-07-31T02:19:15;14.50;99.90
3564;DHT22;1796;52.388;13.096;2023-07-31T02:21:42;14.50;99.90
3564;DHT22;1796;52.388;13.096;2023-07-31T02:24:09;14.40;99.90
3564;DHT22;1796;52.388;13.096;2023-07-31T02:26:36;14.50;99.90
3564;DHT22;1796;52.388;13.096;2023-07-31T02:29:02;14.40;99.90
3564;DHT22;1796;52.388;13.096;2023-07-31T02:31:29;14.40;99.90
3564;DHT22;1796;52.388;13.096;2023-07-31T02:33:57;14.40;99.90
3564;DHT22;1796;52.388;13.096;2023-07-31T02:36:24;14.40;99.90
3564;DHT22;1796;52.388;13.096;2023-07-31T02:38:51;14.40;99.90
3564;DHT22;1796;52.388;13.096;2023-07-31T02:41:18;14.40;99.90
3564;DHT22;1796;52.388;13.096;2023-07-31T02:43:45;14.40;99.90
3564;DHT22;1796;52.388;13.096;2023-07-31T02:46:11;14.40;99.90
3564;DHT22;1796;52.388;13.096;2023-07-31T02:48:38;14.40;99.90
3564;DHT22;1796;52.388;13.096;2023-07-31T02:51:06;14.40;99.90
3564;DHT22;1796;52.388;13.096;2023-07-31T02:53:33;14.30;99.90
3564;DHT22;1796;52.388;13.096;2023-07-31T02:56:00;14.40;99.90
3564;DHT22;1796;52.388;13.096;2023-07-31T02:58:27;14.30;99.90
3564;DHT22;1796;52.388;13.096;2023-07-31T03:00:54;14.30;99.90
3564;DHT22;1796;52.388;13.096;2023-07-31T03:03:21;14.30;99.90
3564;DHT22;1796;52.388;13.096;2023-07-31T03:05:47;14.30;99.90
3564;DHT22;1796;52.388;13.096;2023-07-31T03:08:16;14.30;99.90
3564;DHT22;1796;52.388;13.096;2023-07-31T03:10:42;14.40;99.90
3564;DHT22;1796;52.388;13.096;2023-07-31T03:13:09;14.40;99.90
3564;DHT22;1796;52.388;13.096;2023-07-31T03:15:36;14.30;99.90
3564;DHT22;1796;52.388;13.096;2023-07-31T03:18:03;14.30;99.90
3564;DHT22;1796;52.388;13.096;2023-07-31T03:20:30;14.30;99.90
3564;DHT22;1796;52.388;13.096;2023-07-31T03:22:56;14.40;99.90
3564;DHT22;1796;52.388;13.096;2023-07-31T03:25:25;14.40;99.90
3564;DHT22;1796;52.388;13.096;2023-07-31T03:27:52;14.40;99.90
3564;DHT22;1796;52.388;13.096;2023-07-31T03:30:19;14.40;99.90
3564;DHT22;1796;52.388;13.096;2023-07-31T03:32:46;14.40;99.90
3564;DHT22;1796;52.388;13.096;2023-07-31T03:35:13;14.40;99.90
3564;DHT22;1796;52.388;13.096;2023-07-31T03:37:39;14.40;99.90
3564;DHT22;1796;52.388;13.096;2023-07-31T03:40:07;14.40;99.90
3564;DHT22;1796;52.388;13.096;2023-07-31T03:42:36;14.30;99.90
3564;DHT22;1796;52.388;13.096;2023-07-31T03:45:03;14.40;99.90
3564;DHT22;1796;52.388;13.096;2023-07-31T03:47:30;14.40;99.90
3564;DHT22;1796;52.388;13.096;2023-07-31T03:49:57;14.40;99.90
3564;DHT22;1796;52.388;13.096;2023-07-31T03:52:24;14.40;99.90
3564;DHT22;1796;52.388;13.096;2023-07-31T03:54:51;14.40;99.90
3564;DHT22;1796;52.388;13.096;2023-07-31T03:57:18;14.40;99.90
3564;DHT22;1796;52.388;13.096;2023-07-31T03:59:46;14.40;99.90
3564;DHT22;1796;52.388;13.096;2023-07-31T04:02:13;14.50;99.90
3564;DHT22;1796;52.388;13.096;2023-07-31T04:04:40;14.50;99.90
3564;DHT22;1796;52.388;13.096;2023-07-31T04:07:06;14.50;99.90
3564;DHT22;1796;52.388;13.096;2023-07-31T04:09:33;14.50;99.90
3564;DHT22;1796;52.388;13.096;2023-07-31T04:12:00;14.60;99.90
3564;DHT22;1796;52.388;13.096;2023-07-31T04:14:27;14.60;99.90
3564;DHT22;1796;52.388;13.096;2023-07-31T04:16:55;14.60;99.90
3564;DHT22;1796;52.388;13.096;2023-07-31T04:19:22;14.60;99.90
3564;DHT22;1796;52.388;13.096;2023-07-31T04:21:49;14.60;99.90
3564;DHT22;1796;52.388;13.096;2023-07-31T04:24:15;14.60;99.90
3564;DHT22;1796;52.388;13.096;2023-07-31T04:26:49;14.60;99.90
3564;DHT22;1796;52.388;13.096;2023-07-31T04:29:16;14.60;99.90
3564;DHT22;1796;52.388;13.096;2023-07-31T04:31:43;14.60;99.90
3564;DHT22;1796;52.388;13.096;2023-07-31T04:34:11;14.60;99.90
3564;DHT22;1796;52.388;13.096;2023-07-31T04:36:38;14.70;99.90
3564;DHT22;1796;52.388;13.096;2023-07-31T04:39:05;14.70;99.90
3564;DHT22;1796;52.388;13.096;2023-07-31T04:41:32;14.80;99.90
3564;DHT22;1796;52.388;13.096;2023-07-31T04:43:58;14.80;99.90
3564;DHT22;1796;52.388;13.096;2023-07-31T04:46:25;14.80;99.90
3564;DHT22;1796;52.388;13.096;2023-07-31T04:48:52;14.80;99.90
3564;DHT22;1796;52.388;13.096;2023-07-31T04:51:20;14.80;99.90
3564;DHT22;1796;52.388;13.096;2023-07-31T04:53:48;14.80;99.90
3564;DHT22;1796;52.388;13.096;2023-07-31T04:56:16;14.90;99.90
3564;DHT22;1796;52.388;13.096;2023-07-31T04:58:42;15.00;99.90
3564;DHT22;1796;52.388;13.096;2023-07-31T05:01:09;15.00;99.90
3564;DHT22;1796;52.388;13.096;2023-07-31T05:03:36;15.10;99.90
3564;DHT22;1796;52.388;13.096;2023-07-31T05:06:03;15.10;99.90
3564;DHT22;1796;52.388;13.096;2023-07-31T05:08:31;15.20;99.90
3564;DHT22;1796;52.388;13.096;2023-07-31T05:10:59;15.20;99.90
3564;DHT22;1796;52.388;13.096;2023-07-31T05:13:26;15.20;99.90
3564;DHT22;1796;52.388;13.096;2023-07-31T05:15:52;15.20;99.90
3564;DHT22;1796;52.388;13.096;2023-07-31T05:18:19;15.20;99.90
3564;DHT22;1796;52.388;13.096;2023-07-31T05:20:46;15.30;99.90
3564;DHT22;1796;52.388;13.096;2023-07-31T05:23:13;15.40;99.90
3564;DHT22;1796;52.388;13.096;2023-07-31T05:25:41;15.40;99.90
3564;DHT22;1796;52.388;13.096;2023-07-31T05:28:08;15.40;99.90
3564;DHT22;1796;52.388;13.096;2023-07-31T05:30:35;15.40;99.90
3564;DHT22;1796;52.388;13.096;2023-07-31T05:33:02;15.50;99.90
3564;DHT22;1796;52.388;13.096;2023-07-31T05:35:28;15.50;99.90
3564;DHT22;1796;52.388;13.096;2023-07-31T05:37:55;15.60;99.90
3564;DHT22;1796;52.388;13.096;2023-07-31T05:40:22;15.60;99.90
3564;DHT22;1796;52.388;13.096;2023-07-31T05:42:50;15.60;99.90
3564;DHT22;1796;52.388;13.096;2023-07-31T05:45:17;15.60;99.90
3564;DHT22;1796;52.388;13.096;2023-07-31T05:47:44;15.60;99.90
3564;DHT22;1796;52.388;13.096;2023-07-31T05:50:11;15.70;99.90
3564;DHT22;1796;52.388;13.096;2023-07-31T05:52:38;15.70;99.90
3564;DHT22;1796;52.388;13.096;2023-07-31T05:55:06;15.80;99.90
3564;DHT22;1796;52.388;13.096;2023-07-31T05:57:33;15.90;99.90
3564;DHT22;1796;52.388;13.096;2023-07-31T06:00:02;15.90;99.90
3564;DHT22;1796;52.388;13.096;2023-07-31T06:02:29;15.90;99.90
3564;DHT22;1796;52.388;13.096;2023-07-31T06:04:58;16.00;99.90
3564;DHT22;1796;52.388;13.096;2023-07-31T06:07:26;16.00;99.90
3564;DHT22;1796;52.388;13.096;2023-07-31T06:09:53;16.10;99.90
3564;DHT22;1796;52.388;13.096;2023-07-31T06:12:20;16.20;99.90
3564;DHT22;1796;52.388;13.096;2023-07-31T06:14:47;16.30;99.90
3564;DHT22;1796;52.388;13.096;2023-07-31T06:17:15;16.40;99.90
3564;DHT22;1796;52.388;13.096;2023-07-31T06:19:42;16.40;99.90
3564;DHT22;1796;52.388;13.096;2023-07-31T06:22:09;16.40;99.90
3564;DHT22;1796;52.388;13.096;2023-07-31T06:24:36;16.50;99.90
3564;DHT22;1796;52.388;13.096;2023-07-31T06:27:03;16.50;99.90
3564;DHT22;1796;52.388;13.096;2023-07-31T06:29:30;16.50;99.90
3564;DHT22;1796;52.388;13.096;2023-07-31T06:31:57;16.50;99.90
3564;DHT22;1796;52.388;13.096;2023-07-31T06:34:26;16.40;99.90
3564;DHT22;1796;52.388;13.096;2023-07-31T06:36:52;16.40;99.90
3564;DHT22;1796;52.388;13.096;2023-07-31T06:39:19;16.30;99.90
3564;DHT22;1796;52.388;13.096;2023-07-31T06:41:46;16.20;99.90
3564;DHT22;1796;52.388;13.096;2023-07-31T06:44:13;16.20;99.90
3564;DHT22;1796;52.388;13.096;2023-07-31T06:46:40;16.20;99.90
3564;DHT22;1796;52.388;13.096;2023-07-31T06:49:06;16.20;99.90
3564;DHT22;1796;52.388;13.096;2023-07-31T06:51:35;16.20;99.90
3564;DHT22;1796;52.388;13.096;2023-07-31T06:54:03;16.30;99.90
3564;DHT22;1796;52.388;13.096;2023-07-31T06:56:30;16.30;99.90
3564;DHT22;1796;52.388;13.096;2023-07-31T06:58:57;16.30;99.90
3564;DHT22;1796;52.388;13.096;2023-07-31T07:01:24;16.20;99.90
3564;DHT22;1796;52.388;13.096;2023-07-31T07:03:51;16.20;99.90
3564;DHT22;1796;52.388;13.096;2023-07-31T07:06:18;16.20;99.90
3564;DHT22;1796;52.388;13.096;2023-07-31T07:08:47;16.30;99.90
3564;DHT22;1796;52.388;13.096;2023-07-31T07:11:14;16.30;99.90
3564;DHT22;1796;52.388;13.096;2023-07-31T07:13:41;16.30;99.90
3564;DHT22;1796;52.388;13.096;2023-07-31T07:16:07;16.30;99.90
3564;DHT22;1796;52.388;13.096;2023-07-31T07:18:36;16.30;99.90
3564;DHT22;1796;52.388;13.096;2023-07-31T07:21:02;16.30;99.90
3564;DHT22;1796;52.388;13.096;2023-07-31T07:23:29;16.40;99.90
3564;DHT22;1796;52.388;13.096;2023-07-31T07:25:58;16.30;99.90
3564;DHT22;1796;52.388;13.096;2023-07-31T07:28:24;16.50;99.90
3564;DHT22;1796;52.388;13.096;2023-07-31T07:30:52;16.50;99.90
3564;DHT22;1796;52.388;13.096;2023-07-31T07:33:19;16.50;99.90
3564;DHT22;1796;52.388;13.096;2023-07-31T07:35:46;16.70;99.90
3564;DHT22;1796;52.388;13.096;2023-07-31T07:38:14;16.90;99.90
3564;DHT22;1796;52.388;13.096;2023-07-31T07:40:41;16.80;99.90
3564;DHT22;1796;52.388;13.096;2023-07-31T07:43:09;16.80;99.90
3564;DHT22;1796;52.388;13.096;2023-07-31T07:45:36;16.90;99.90
3564;DHT22;1796;52.388;13.096;2023-07-31T07:48:03;16.90;99.90
3564;DHT22;1796;52.388;13.096;2023-07-31T07:50:30;16.80;99.90
3564;DHT22;1796;52.388;13.096;2023-07-31T07:52:57;16.80;99.90
3564;DHT22;1796;52.388;13.096;2023-07-31T07:55:24;16.80;99.90
3564;DHT22;1796;52.388;13.096;2023-07-31T07:57:51;17.00;99.90
3564;DHT22;1796;52.388;13.096;2023-07-31T08:00:19;17.10;99.90
3564;DHT22;1796;52.388;13.096;2023-07-31T08:02:46;17.10;99.90
3564;DHT22;1796;52.388;13.096;2023-07-31T08:05:13;17.10;99.90
3564;DHT22;1796;52.388;13.096;2023-07-31T08:07:40;17.40;99.90
3564;DHT22;1796;52.388;13.096;2023-07-31T08:10:07;17.40;99.90
3564;DHT22;1796;52.388;13.096;2023-07-31T08:12:34;17.40;99.90
3564;DHT22;1796;52.388;13.096;2023-07-31T08:15:01;17.60;99.90
3564;DHT22;1796;52.388;13.096;2023-07-31T08:17:29;17.60;99.90
3564;DHT22;1796;52.388;13.096;2023-07-31T08:19:56;17.60;99.90
3564;DHT22;1796;52.388;13.096;2023-07-31T08:22:24;17.70;99.90
3564;DHT22;1796;52.388;13.096;2023-07-31T08:24:51;17.80;99.90
3564;DHT22;1796;52.388;13.096;2023-07-31T08:27:18;18.10;99.90
3564;DHT22;1796;52.388;13.096;2023-07-31T08:29:45;18.00;99.90
3564;DHT22;1796;52.388;13.096;2023-07-31T08:32:12;17.80;99.90
3564;DHT22;1796;52.388;13.096;2023-07-31T08:34:40;17.80;99.90
3564;DHT22;1796;52.388;13.096;2023-07-31T08:37:07;17.70;99.90
3564;DHT22;1796;52.388;13.096;2023-07-31T08:39:34;17.70;99.90
3564;DHT22;1796;52.388;13.096;2023-07-31T08:42:08;17.80;99.90
3564;DHT22;1796;52.388;13.096;2023-07-31T08:44:35;18.10;99.90
3564;DHT22;1796;52.388;13.096;2023-07-31T08:47:03;18.20;99.90
3564;DHT22;1796;52.388;13.096;2023-07-31T08:49:31;18.50;99.90
3564;DHT22;1796;52.388;13.096;2023-07-31T08:51:59;18.70;99.90
3564;DHT22;1796;52.388;13.096;2023-07-31T08:54:26;18.70;99.90
3564;DHT22;1796;52.388;13.096;2023-07-31T08:56:56;18.90;99.90
3564;DHT22;1796;52.388;13.096;2023-07-31T08:59:26;18.80;99.90
3564;DHT22;1796;52.388;13.096;2023-07-31T09:01:55;19.00;99.90
3564;DHT22;1796;52.388;13.096;2023-07-31T09:04:25;18.80;99.90
3564;DHT22;1796;52.388;13.096;2023-07-31T09:07:00;18.40;99.90
3564;DHT22;1796;52.388;13.096;2023-07-31T09:09:28;18.00;99.90
3564;DHT22;1796;52.388;13.096;2023-07-31T09:11:56;17.80;99.90
3564;DHT22;1796;52.388;13.096;2023-07-31T09:14:25;17.70;99.90
3564;DHT22;1796;52.388;13.096;2023-07-31T09:16:53;17.70;99.90
3564;DHT22;1796;52.388;13.096;2023-07-31T09:19:27;18.00;99.90
3564;DHT22;1796;52.388;13.096;2023-07-31T09:21:54;18.30;99.90
3564;DHT22;1796;52.388;13.096;2023-07-31T09:24:28;18.40;99.90
3564;DHT22;1796;52.388;13.096;2023-07-31T09:26:56;18.50;99.90
3564;DHT22;1796;52.388;13.096;2023-07-31T09:29:24;18.60;99.90
3564;DHT22;1796;52.388;13.096;2023-07-31T09:31:52;18.70;99.90
3564;DHT22;1796;52.388;13.096;2023-07-31T09:34:20;18.80;99.90
3564;DHT22;1796;52.388;13.096;2023-07-31T09:36:54;19.00;99.90
3564;DHT22;1796;52.388;13.096;2023-07-31T09:39:22;19.30;99.90
3564;DHT22;1796;52.388;13.096;2023-07-31T09:41:55;19.60;99.90
3564;DHT22;1796;52.388;13.096;2023-07-31T09:44:37;19.50;99.90
3564;DHT22;1796;52.388;13.096;2023-07-31T09:47:06;19.40;99.90
3564;DHT22;1796;52.388;13.096;2023-07-31T09:49:33;19.20;99.90
3564;DHT22;1796;52.388;13.096;2023-07-31T09:52:00;18.90;99.90
3564;DHT22;1796;52.388;13.096;2023-07-31T09:54:27;18.80;99.90
3564;DHT22;1796;52.388;13.096;2023-07-31T09:56:56;18.70;99.90
3564;DHT22;1796;52.388;13.096;2023-07-31T09:59:25;18.60;99.90
3564;DHT22;1796;52.388;13.096;2023-07-31T10:01:52;18.50;99.90
3564;DHT22;1796;52.388;13.096;2023-07-31T10:04:27;18.40;99.90
3564;DHT22;1796;52.388;13.096;2023-07-31T10:06:55;18.40;99.90
3564;DHT22;1796;52.388;13.096;2023-07-31T10:09:23;18.50;99.90
3564;DHT22;1796;52.388;13.096;2023-07-31T10:11:59;18.60;99.90
3564;DHT22;1796;52.388;13.096;2023-07-31T10:14:26;18.70;99.90
3564;DHT22;1796;52.388;13.096;2023-07-31T10:16:54;18.90;99.90
3564;DHT22;1796;52.388;13.096;2023-07-31T10:19:21;19.10;99.90
3564;DHT22;1796;52.388;13.096;2023-07-31T10:21:49;19.30;99.90
3564;DHT22;1796;52.388;13.096;2023-07-31T10:24:16;19.40;99.90
3564;DHT22;1796;52.388;13.096;2023-07-31T10:26:45;19.90;99.90
3564;DHT22;1796;52.388;13.096;2023-07-31T10:29:16;20.30;99.90
3564;DHT22;1796;52.388;13.096;2023-07-31T10:31:44;20.60;99.90
3564;DHT22;1796;52.388;13.096;2023-07-31T10:34:12;20.90;99.90
3564;DHT22;1796;52.388;13.096;2023-07-31T10:36:39;21.40;99.90
3564;DHT22;1796;52.388;13.096;2023-07-31T10:39:35;21.50;99.90
3564;DHT22;1796;52.388;13.096;2023-07-31T10:42:10;21.60;99.90
3564;DHT22;1796;52.388;13.096;2023-07-31T10:44:43;21.90;99.90
3564;DHT22;1796;52.388;13.096;2023-07-31T10:47:14;21.90;99.90
3564;DHT22;1796;52.388;13.096;2023-07-31T10:49:44;22.20;99.90
3564;DHT22;1796;52.388;13.096;2023-07-31T10:52:13;22.50;99.90
3564;DHT22;1796;52.388;13.096;2023-07-31T10:54:40;22.80;99.90
3564;DHT22;1796;52.388;13.096;2023-07-31T10:57:19;23.00;99.90
3564;DHT22;1796;52.388;13.096;2023-07-31T10:59:48;23.10;99.90
3564;DHT22;1796;52.388;13.096;2023-07-31T11:02:25;22.80;99.90
3564;DHT22;1796;52.388;13.096;2023-07-31T11:05:06;22.90;99.90
3564;DHT22;1796;52.388;13.096;2023-07-31T11:07:46;23.20;99.90
3564;DHT22;1796;52.388;13.096;2023-07-31T11:10:16;23.20;99.90
3564;DHT22;1796;52.388;13.096;2023-07-31T11:12:45;23.00;99.90
3564;DHT22;1796;52.388;13.096;2023-07-31T11:15:13;22.80;99.90
3564;DHT22;1796;52.388;13.096;2023-07-31T11:17:40;22.90;99.90
3564;DHT22;1796;52.388;13.096;2023-07-31T11:20:08;23.40;99.90
3564;DHT22;1796;52.388;13.096;2023-07-31T11:22:35;23.70;99.90
3564;DHT22;1796;52.388;13.096;2023-07-31T11:25:03;23.60;99.90
3564;DHT22;1796;52.388;13.096;2023-07-31T11:27:30;23.70;99.90
3564;DHT22;1796;52.388;13.096;2023-07-31T11:30:00;23.70;99.90
3564;DHT22;1796;52.388;13.096;2023-07-31T11:32:29;23.50;99.90
3564;DHT22;1796;52.388;13.096;2023-07-31T11:34:56;23.30;99.90
3564;DHT22;1796;52.388;13.096;2023-07-31T11:37:23;23.00;99.90
3564;DHT22;1796;52.388;13.096;2023-07-31T11:40:00;22.70;99.90
3564;DHT22;1796;52.388;13.096;2023-07-31T11:42:27;22.70;99.90
3564;DHT22;1796;52.388;13.096;2023-07-31T11:44:53;22.70;99.90
3564;DHT22;1796;52.388;13.096;2023-07-31T11:47:20;22.50;99.90
3564;DHT22;1796;52.388;13.096;2023-07-31T11:49:49;22.40;99.90
3564;DHT22;1796;52.388;13.096;2023-07-31T11:52:16;22.50;99.90
3564;DHT22;1796;52.388;13.096;2023-07-31T11:54:45;22.70;99.90
3564;DHT22;1796;52.388;13.096;2023-07-31T11:57:13;23.00;99.90
3564;DHT22;1796;52.388;13.096;2023-07-31T11:59:40;23.20;99.90
3564;DHT22;1796;52.388;13.096;2023-07-31T12:02:08;23.50;99.90
3564;DHT22;1796;52.388;13.096;2023-07-31T12:04:35;23.60;99.90
3564;DHT22;1796;52.388;13.096;2023-07-31T12:07:05;23.30;99.90
3564;DHT22;1796;52.388;13.096;2023-07-31T12:09:32;23.50;99.90
3564;DHT22;1796;52.388;13.096;2023-07-31T12:11:59;23.10;99.90
3564;DHT22;1796;52.388;13.096;2023-07-31T12:14:27;23.10;99.90
3564;DHT22;1796;52.388;13.096;2023-07-31T12:16:54;23.00;99.90
3564;DHT22;1796;52.388;13.096;2023-07-31T12:19:22;23.30;99.90
3564;DHT22;1796;52.388;13.096;2023-07-31T12:21:49;23.20;99.90
3564;DHT22;1796;52.388;13.096;2023-07-31T12:24:19;23.10;99.90
3564;DHT22;1796;52.388;13.096;2023-07-31T12:26:48;23.00;99.90
3564;DHT22;1796;52.388;13.096;2023-07-31T12:29:15;23.20;99.90
3564;DHT22;1796;52.388;13.096;2023-07-31T12:31:42;23.60;99.90
3564;DHT22;1796;52.388;13.096;2023-07-31T12:34:15;23.70;99.90
3564;DHT22;1796;52.388;13.096;2023-07-31T12:36:43;23.70;99.90
3564;DHT22;1796;52.388;13.096;2023-07-31T12:39:10;23.70;99.90
3564;DHT22;1796;52.388;13.096;2023-07-31T12:41:38;23.90;99.90
3564;DHT22;1796;52.388;13.096;2023-07-31T12:44:05;23.70;99.90
3564;DHT22;1796;52.388;13.096;2023-07-31T12:46:32;23.90;99.90
3564;DHT22;1796;52.388;13.096;2023-07-31T12:48:59;23.80;99.90
3564;DHT22;1796;52.388;13.096;2023-07-31T12:51:26;23.70;99.90
3564;DHT22;1796;52.388;13.096;2023-07-31T12:53:53;23.70;99.90
3564;DHT22;1796;52.388;13.096;2023-07-31T12:56:20;23.60;99.90
3564;DHT22;1796;52.388;13.096;2023-07-31T12:58:49;23.50;99.90
3564;DHT22;1796;52.388;13.096;2023-07-31T13:01:16;23.50;99.90
3564;DHT22;1796;52.388;13.096;2023-07-31T13:03:42;23.30;99.90
3564;DHT22;1796;52.388;13.096;2023-07-31T13:06:09;23.50;99.90
3564;DHT22;1796;52.388;13.096;2023-07-31T13:08:36;23.70;99.90
3564;DHT22;1796;52.388;13.096;2023-07-31T13:11:03;23.90;99.90
3564;DHT22;1796;52.388;13.096;2023-07-31T13:13:30;23.70;99.90
3564;DHT22;1796;52.388;13.096;2023-07-31T13:15:58;23.70;99.90
3564;DHT22;1796;52.388;13.096;2023-07-31T13:18:25;23.80;99.90
3564;DHT22;1796;52.388;13.096;2023-07-31T13:20:52;24.20;99.90
3564;DHT22;1796;52.388;13.096;2023-07-31T13:23:19;24.30;99.90
3564;DHT22;1796;52.388;13.096;2023-07-31T13:25:46;24.40;99.90
3564;DHT22;1796;52.388;13.096;2023-07-31T13:28:12;24.20;99.90
3564;DHT22;1796;52.388;13.096;2023-07-31T13:30:40;24.60;99.90
3564;DHT22;1796;52.388;13.096;2023-07-31T13:33:08;24.40;99.90
3564;DHT22;1796;52.388;13.096;2023-07-31T13:35:35;24.30;99.90
3564;DHT22;1796;52.388;13.096;2023-07-31T13:38:01;24.30;99.90
3564;DHT22;1796;52.388;13.096;2023-07-31T13:40:28;24.40;99.90
3564;DHT22;1796;52.388;13.096;2023-07-31T13:42:55;24.10;99.90
3564;DHT22;1796;52.388;13.096;2023-07-31T13:45:22;23.90;99.90
3564;DHT22;1796;52.388;13.096;2023-07-31T13:47:50;23.80;99.90
3564;DHT22;1796;52.388;13.096;2023-07-31T13:50:18;23.90;99.90
3564;DHT22;1796;52.388;13.096;2023-07-31T13:52:46;24.10;99.90
3564;DHT22;1796;52.388;13.096;2023-07-31T13:55:13;24.70;99.90
3564;DHT22;1796;52.388;13.096;2023-07-31T13:57:40;24.80;99.90
3564;DHT22;1796;52.388;13.096;2023-07-31T14:00:08;24.90;99.90
3564;DHT22;1796;52.388;13.096;2023-07-31T14:02:35;24.80;99.90
3564;DHT22;1796;52.388;13.096;2023-07-31T14:05:02;24.20;99.90
3564;DHT22;1796;52.388;13.096;2023-07-31T14:07:31;23.90;99.90
3564;DHT22;1796;52.388;13.096;2023-07-31T14:09:58;23.80;99.90
3564;DHT22;1796;52.388;13.096;2023-07-31T14:12:25;23.60;99.90
3564;DHT22;1796;52.388;13.096;2023-07-31T14:14:52;23.60;99.90
3564;DHT22;1796;52.388;13.096;2023-07-31T14:17:19;24.10;99.90
3564;DHT22;1796;52.388;13.096;2023-07-31T14:19:46;24.10;99.90
3564;DHT22;1796;52.388;13.096;2023-07-31T14:22:12;24.00;99.90
3564;DHT22;1796;52.388;13.096;2023-07-31T14:24:41;23.80;99.90
3564;DHT22;1796;52.388;13.096;2023-07-31T14:27:07;23.80;99.90
3564;DHT22;1796;52.388;13.096;2023-07-31T14:29:34;23.80;99.90
3564;DHT22;1796;52.388;13.096;2023-07-31T14:32:02;23.70;99.90
3564;DHT22;1796;52.388;13.096;2023-07-31T14:34:30;23.50;99.90
3564;DHT22;1796;52.388;13.096;2023-07-31T14:36:56;23.30;99.90
3564;DHT22;1796;52.388;13.096;2023-07-31T14:39:24;23.10;99.90
3564;DHT22;1796;52.388;13.096;2023-07-31T14:41:52;22.90;99.90
3564;DHT22;1796;52.388;13.096;2023-07-31T14:44:19;22.90;99.90
3564;DHT22;1796;52.388;13.096;2023-07-31T14:46:45;22.90;99.90
3564;DHT22;1796;52.388;13.096;2023-07-31T14:49:12;22.80;99.90
3564;DHT22;1796;52.388;13.096;2023-07-31T14:51:39;22.60;99.90
3564;DHT22;1796;52.388;13.096;2023-07-31T14:54:06;22.60;99.90
3564;DHT22;1796;52.388;13.096;2023-07-31T14:56:33;22.40;99.90
3564;DHT22;1796;52.388;13.096;2023-07-31T14:59:01;22.50;99.90
3564;DHT22;1796;52.388;13.096;2023-07-31T15:01:28;22.30;99.90
3564;DHT22;1796;52.388;13.096;2023-07-31T15:03:55;22.20;99.90
3564;DHT22;1796;52.388;13.096;2023-07-31T15:06:21;22.30;99.90
3564;DHT22;1796;52.388;13.096;2023-07-31T15:08:48;22.10;99.90
3564;DHT22;1796;52.388;13.096;2023-07-31T15:11:15;21.60;99.90
3564;DHT22;1796;52.388;13.096;2023-07-31T15:13:43;21.30;99.90
3564;DHT22;1796;52.388;13.096;2023-07-31T15:16:12;21.10;99.90
3564;DHT22;1796;52.388;13.096;2023-07-31T15:18:39;21.10;99.90
3564;DHT22;1796;52.388;13.096;2023-07-31T15:21:06;21.30;99.90
3564;DHT22;1796;52.388;13.096;2023-07-31T15:23:34;21.70;99.90
3564;DHT22;1796;52.388;13.096;2023-07-31T15:26:03;22.10;99.90
3564;DHT22;1796;52.388;13.096;2023-07-31T15:28:31;22.50;99.90
3564;DHT22;1796;52.388;13.096;2023-07-31T15:31:00;22.90;99.90
3564;DHT22;1796;52.388;13.096;2023-07-31T15:33:28;22.90;99.90
3564;DHT22;1796;52.388;13.096;2023-07-31T15:35:55;22.80;99.90
3564;DHT22;1796;52.388;13.096;2023-07-31T15:38:23;22.80;99.90
3564;DHT22;1796;52.388;13.096;2023-07-31T15:40:50;22.80;99.90
3564;DHT22;1796;52.388;13.096;2023-07-31T15:43:18;22.90;99.90
3564;DHT22;1796;52.388;13.096;2023-07-31T15:45:45;23.00;99.90
3564;DHT22;1796;52.388;13.096;2023-07-31T15:48:12;23.00;99.90